createdAt,value
2022-12-09T00:00:12.993Z,73.83
2022-12-09T00:01:16.841Z,73.74
2022-12-09T00:02:19.551Z,73.61
2022-12-09T00:03:23.828Z,73.80
2022-12-09T00:04:27.088Z,73.75
2022-12-09T00:05:28.810Z,73.72
2022-12-09T00:06:33.140Z,73.62
2022-12-09T00:07:35.045Z,73.91
2022-12-09T00:08:37.648Z,73.65
2022-12-09T00:09:39.522Z,73.58
2022-12-09T00:10:44.911Z,73.72
2022-12-09T00:11:47.657Z,73.67
2022-12-09T00:12:55.158Z,73.65
2022-12-09T00:13:58.933Z,73.52
2022-12-09T00:15:01.536Z,73.63
2022-12-09T00:16:07.271Z,73.67
2022-12-09T00:17:10.192Z,73.67
2022-12-09T00:18:12.027Z,73.68
2022-12-09T00:19:15.887Z,73.76
2022-12-09T00:20:20.223Z,73.77
2022-12-09T00:21:25.288Z,73.28
2022-12-09T00:22:27.316Z,73.55
2022-12-09T00:23:29.884Z,73.83
2022-12-09T00:24:32.423Z,73.53
2022-12-09T00:25:35.277Z,73.69
2022-12-09T00:26:37.089Z,73.51
2022-12-09T00:27:39.642Z,73.73
2022-12-09T00:28:43.584Z,73.21
2022-12-09T00:29:46.146Z,73.21
2022-12-09T00:30:48.006Z,73.27
2022-12-09T00:31:51.060Z,73.34
2022-12-09T00:32:52.848Z,73.66
2022-12-09T00:33:58.509Z,73.15
2022-12-09T00:35:00.395Z,73.31
2022-12-09T00:36:08.337Z,73.64
2022-12-09T00:37:10.868Z,73.37
2022-12-09T00:38:12.748Z,73.39
2022-12-09T00:39:15.323Z,73.57
2022-12-09T00:40:16.856Z,73.71
2022-12-09T00:41:19.974Z,73.62
2022-12-09T00:42:25.200Z,73.61
2022-12-09T00:43:27.162Z,73.32
2022-12-09T00:44:31.066Z,73.41
2022-12-09T00:45:38.176Z,73.40
2022-12-09T00:46:39.970Z,73.25
2022-12-09T00:47:42.920Z,73.67
2022-12-09T00:48:45.507Z,73.54
2022-12-09T00:49:48.210Z,73.59
2022-12-09T00:50:50.038Z,73.61
2022-12-09T00:51:54.100Z,73.27
2022-12-09T00:52:55.992Z,73.47
2022-12-09T00:53:58.566Z,73.71
2022-12-09T00:55:00.491Z,73.62
2022-12-09T00:56:03.364Z,73.36
2022-12-09T00:57:05.116Z,73.52
2022-12-09T00:58:08.345Z,73.87
2022-12-09T00:59:10.000Z,73.54
2022-12-09T01:00:14.767Z,73.48
2022-12-09T01:01:16.420Z,73.99
2022-12-09T01:02:19.116Z,73.86
2022-12-09T01:03:21.490Z,73.73
2022-12-09T01:04:25.808Z,73.76
2022-12-09T01:05:27.631Z,73.81
2022-12-09T01:06:30.235Z,73.72
2022-12-09T01:07:32.022Z,73.78
2022-12-09T01:08:38.473Z,73.41
2022-12-09T01:09:40.877Z,73.61
2022-12-09T01:10:45.307Z,73.49
2022-12-09T01:11:46.871Z,73.48
2022-12-09T01:12:49.495Z,73.40
2022-12-09T01:13:51.426Z,73.39
2022-12-09T01:14:54.087Z,73.66
2022-12-09T01:15:57.234Z,73.82
2022-12-09T01:16:59.978Z,73.73
2022-12-09T01:18:01.780Z,73.54
2022-12-09T01:19:08.376Z,73.23
2022-12-09T01:20:10.974Z,73.51
2022-12-09T01:21:14.564Z,73.48
2022-12-09T01:22:17.441Z,73.31
2022-12-09T01:23:19.051Z,73.38
2022-12-09T01:24:22.141Z,73.34
2022-12-09T01:25:23.699Z,73.31
2022-12-09T01:26:26.614Z,73.19
2022-12-09T01:27:29.764Z,73.26
2022-12-09T01:28:32.489Z,73.40
2022-12-09T01:29:34.492Z,73.18
2022-12-09T01:30:37.128Z,73.44
2022-12-09T01:31:40.813Z,72.86
2022-12-09T01:32:43.828Z,72.65
2022-12-09T01:33:46.334Z,73.31
2022-12-09T01:34:49.336Z,72.99
2022-12-09T01:35:51.032Z,73.32
2022-12-09T01:36:53.946Z,72.93
2022-12-09T01:37:55.766Z,72.91
2022-12-09T01:39:00.929Z,73.20
2022-12-09T01:40:06.016Z,73.00
2022-12-09T01:41:09.070Z,72.73
2022-12-09T01:42:19.377Z,72.83
2022-12-09T01:43:22.694Z,72.78
2022-12-09T01:44:26.086Z,73.17
2022-12-09T01:45:44.219Z,73.17
2022-12-09T01:46:48.551Z,72.90
2022-12-09T01:47:54.436Z,72.78
2022-12-09T01:48:56.975Z,72.99
2022-12-09T01:49:58.895Z,73.04
2022-12-09T01:51:04.237Z,73.14
2022-12-09T01:52:10.363Z,73.31
2022-12-09T01:53:14.648Z,72.96
2022-12-09T01:54:16.893Z,73.21
2022-12-09T01:55:19.932Z,73.14
2022-12-09T01:56:25.565Z,73.04
2022-12-09T01:57:28.160Z,72.96
2022-12-09T01:58:29.896Z,72.90
2022-12-09T01:59:32.903Z,72.92
2022-12-09T02:00:39.347Z,72.58
2022-12-09T02:01:43.371Z,72.60
2022-12-09T02:02:48.874Z,72.63
2022-12-09T02:03:51.826Z,72.68
2022-12-09T02:04:54.965Z,72.70
2022-12-09T02:05:57.787Z,72.78
2022-12-09T02:07:02.199Z,72.63
2022-12-09T02:08:07.949Z,72.37
2022-12-09T02:09:10.309Z,72.46
2022-12-09T02:10:16.187Z,72.69
2022-12-09T02:11:30.111Z,72.42
2022-12-09T02:12:39.845Z,72.37
2022-12-09T02:13:48.475Z,72.74
2022-12-09T02:14:57.281Z,72.67
2022-12-09T02:18:45.551Z,72.54
2022-12-09T02:20:01.723Z,72.55
2022-12-09T02:21:13.103Z,72.92
2022-12-09T02:22:20.573Z,72.82
2022-12-09T02:23:28.034Z,72.83
2022-12-09T02:24:40.187Z,72.94
2022-12-09T02:25:47.604Z,73.09
2022-12-09T02:26:55.803Z,72.95
2022-12-09T02:28:18.427Z,72.54
2022-12-09T02:29:38.426Z,73.10
2022-12-09T02:30:47.833Z,73.09
2022-12-09T02:32:07.591Z,72.91
2022-12-09T02:33:25.636Z,72.83
2022-12-09T02:34:31.885Z,72.59
2022-12-09T02:35:40.550Z,72.55
2022-12-09T02:36:52.360Z,72.67
2022-12-09T02:37:59.531Z,72.61
2022-12-09T02:39:02.367Z,72.87
2022-12-09T02:40:11.122Z,72.77
2022-12-09T02:41:20.252Z,72.83
2022-12-09T02:42:25.357Z,72.49
2022-12-09T02:43:32.826Z,72.74
2022-12-09T02:44:38.042Z,72.70
2022-12-09T02:45:42.386Z,72.43
2022-12-09T02:46:45.722Z,72.82
2022-12-09T02:47:51.407Z,72.42
2022-12-09T02:48:57.206Z,72.56
2022-12-09T02:50:03.816Z,72.37
2022-12-09T02:51:10.992Z,72.45
2022-12-09T02:52:13.849Z,72.45
2022-12-09T02:53:18.733Z,72.89
2022-12-09T02:54:21.371Z,72.85
2022-12-09T02:55:28.195Z,72.75
2022-12-09T02:56:30.323Z,72.75
2022-12-09T02:57:36.016Z,72.71
2022-12-09T02:58:37.584Z,72.40
2022-12-09T02:59:40.562Z,72.24
2022-12-09T03:00:42.720Z,72.51
2022-12-09T03:01:52.267Z,72.29
2022-12-09T03:02:58.178Z,72.23
2022-12-09T03:04:07.246Z,72.10
2022-12-09T03:05:21.438Z,72.35
2022-12-09T03:06:27.146Z,71.90
2022-12-09T03:07:34.171Z,72.05
2022-12-09T03:08:43.967Z,72.24
2022-12-09T03:09:52.927Z,72.12
2022-12-09T03:11:01.116Z,72.21
2022-12-09T03:12:09.082Z,72.04
2022-12-09T03:13:17.044Z,72.13
2022-12-09T03:14:25.595Z,72.52
2022-12-09T03:15:31.751Z,72.13
2022-12-09T03:16:37.084Z,72.32
2022-12-09T03:17:41.644Z,72.10
2022-12-09T03:18:49.328Z,72.15
2022-12-09T03:19:54.859Z,71.76
2022-12-09T03:20:59.249Z,71.95
2022-12-09T03:22:05.397Z,72.36
2022-12-09T03:23:11.247Z,72.08
2022-12-09T03:24:17.703Z,72.29
2022-12-09T03:25:25.091Z,72.03
2022-12-09T03:26:30.939Z,72.22
2022-12-09T03:27:39.263Z,72.04
2022-12-09T03:28:45.002Z,71.90
2022-12-09T03:29:50.415Z,71.98
2022-12-09T03:30:53.505Z,71.85
2022-12-09T03:31:59.782Z,72.03
2022-12-09T03:33:03.906Z,71.85
2022-12-09T03:34:10.944Z,72.24
2022-12-09T03:35:26.607Z,72.03
2022-12-09T03:36:36.158Z,72.05
2022-12-09T03:37:40.463Z,72.06
2022-12-09T03:38:46.635Z,71.85
2022-12-09T03:39:51.320Z,72.02
2022-12-09T03:41:01.638Z,72.23
2022-12-09T03:42:09.649Z,72.17
2022-12-09T03:43:15.200Z,71.99
2022-12-09T03:44:20.262Z,72.00
2022-12-09T03:45:24.872Z,72.08
2022-12-09T03:46:29.087Z,72.09
2022-12-09T03:47:31.823Z,71.91
2022-12-09T03:48:34.008Z,72.31
2022-12-09T03:49:38.996Z,72.08
2022-12-09T03:50:46.640Z,71.89
2022-12-09T03:51:56.598Z,72.39
2022-12-09T03:53:03.670Z,71.40
2022-12-09T03:54:10.654Z,71.65
2022-12-09T03:55:19.565Z,71.74
2022-12-09T03:56:25.417Z,71.93
2022-12-09T03:57:28.685Z,71.64
2022-12-09T03:58:33.446Z,71.58
2022-12-09T03:59:36.636Z,71.55
2022-12-09T04:00:39.254Z,71.67
2022-12-09T04:01:44.705Z,71.91
2022-12-09T04:02:47.027Z,71.64
2022-12-09T04:03:50.916Z,71.88
2022-12-09T04:04:52.738Z,71.54
2022-12-09T04:05:55.333Z,71.29
2022-12-09T04:06:58.706Z,71.78
2022-12-09T04:08:01.425Z,71.44
2022-12-09T04:09:04.337Z,71.23
2022-12-09T04:10:08.662Z,71.27
2022-12-09T04:11:10.626Z,71.87
2022-12-09T04:12:13.424Z,71.64
2022-12-09T04:13:15.035Z,71.75
2022-12-09T04:14:17.775Z,71.66
2022-12-09T04:15:19.468Z,71.36
2022-12-09T04:16:22.066Z,71.45
2022-12-09T04:17:23.689Z,71.44
2022-12-09T04:18:27.159Z,71.36
2022-12-09T04:19:28.942Z,71.08
2022-12-09T04:20:31.512Z,71.33
2022-12-09T04:21:33.031Z,71.50
2022-12-09T04:22:37.078Z,71.25
2022-12-09T04:23:42.957Z,71.18
2022-12-09T04:24:46.048Z,71.09
2022-12-09T04:25:47.583Z,71.18
2022-12-09T04:26:50.216Z,70.94
2022-12-09T04:27:52.189Z,71.20
2022-12-09T04:28:54.921Z,70.92
2022-12-09T04:29:56.460Z,71.50
2022-12-09T04:30:59.485Z,71.11
2022-12-09T04:32:01.340Z,71.46
2022-12-09T04:33:03.988Z,71.26
2022-12-09T04:34:09.519Z,71.23
2022-12-09T04:35:12.664Z,71.38
2022-12-09T04:36:16.631Z,71.25
2022-12-09T04:37:19.181Z,71.23
2022-12-09T04:38:22.102Z,71.60
2022-12-09T04:39:25.202Z,71.48
2022-12-09T04:40:26.907Z,71.60
2022-12-09T04:41:29.669Z,71.48
2022-12-09T04:42:31.218Z,71.80
2022-12-09T04:43:33.837Z,71.65
2022-12-09T04:44:35.756Z,71.85
2022-12-09T04:45:38.473Z,71.84
2022-12-09T04:46:40.395Z,71.55
2022-12-09T04:47:43.087Z,72.05
2022-12-09T04:48:45.146Z,71.80
2022-12-09T04:49:47.971Z,71.88
2022-12-09T04:50:49.651Z,71.86
2022-12-09T04:51:52.315Z,72.14
2022-12-09T04:52:54.000Z,71.64
2022-12-09T04:53:58.821Z,71.91
2022-12-09T04:55:00.444Z,72.10
2022-12-09T04:56:06.218Z,71.85
2022-12-09T04:57:08.514Z,71.92
2022-12-09T04:58:11.063Z,72.14
2022-12-09T04:59:12.896Z,72.11
2022-12-09T05:00:16.898Z,72.08
2022-12-09T05:01:28.237Z,72.30
2022-12-09T05:02:33.392Z,72.10
2022-12-09T05:03:36.046Z,72.33
2022-12-09T05:04:38.894Z,72.28
2022-12-09T05:05:41.123Z,72.45
2022-12-09T05:06:44.173Z,72.35
2022-12-09T05:07:46.009Z,72.49
2022-12-09T05:08:49.209Z,72.34
2022-12-09T05:09:53.088Z,72.64
2022-12-09T05:10:56.041Z,72.47
2022-12-09T05:11:58.062Z,72.48
2022-12-09T05:13:00.931Z,72.55
2022-12-09T05:14:03.785Z,72.87
2022-12-09T05:15:06.430Z,72.47
2022-12-09T05:16:15.936Z,72.58
2022-12-09T05:17:20.535Z,72.99
2022-12-09T05:18:22.677Z,72.82
2022-12-09T05:19:25.824Z,72.69
2022-12-09T05:20:29.194Z,73.04
2022-12-09T05:21:31.944Z,73.23
2022-12-09T05:22:33.635Z,72.98
2022-12-09T05:23:37.501Z,73.12
2022-12-09T05:24:41.117Z,73.27
2022-12-09T05:25:45.500Z,73.24
2022-12-09T05:26:47.375Z,73.24
2022-12-09T05:27:50.896Z,73.57
2022-12-09T05:28:52.715Z,73.82
2022-12-09T05:29:55.920Z,73.50
2022-12-09T05:30:59.844Z,73.53
2022-12-09T05:32:02.917Z,73.42
2022-12-09T05:33:05.085Z,73.58
2022-12-09T05:34:07.881Z,73.98
2022-12-09T05:35:11.515Z,73.68
2022-12-09T05:36:15.869Z,73.84
2022-12-09T05:37:18.814Z,73.84
2022-12-09T05:38:21.953Z,73.84
2022-12-09T05:39:25.161Z,73.81
2022-12-09T05:40:27.028Z,74.14
2022-12-09T05:41:31.359Z,73.99
2022-12-09T05:42:37.884Z,74.39
2022-12-09T05:43:44.017Z,74.49
2022-12-09T05:44:46.050Z,74.32
2022-12-09T05:45:49.116Z,74.21
2022-12-09T05:46:50.770Z,74.64
2022-12-09T05:47:54.352Z,74.38
2022-12-09T05:48:56.246Z,74.37
2022-12-09T05:50:04.391Z,74.62
2022-12-09T05:51:14.305Z,74.63
2022-12-09T05:52:17.328Z,74.75
2022-12-09T05:53:19.878Z,74.66
2022-12-09T05:54:22.551Z,74.93
2022-12-09T05:55:24.250Z,74.73
2022-12-09T05:56:31.780Z,74.94
2022-12-09T05:57:34.370Z,74.83
2022-12-09T05:58:37.397Z,75.21
2022-12-09T05:59:40.315Z,75.02
2022-12-09T06:00:42.024Z,75.01
2022-12-09T06:01:44.683Z,75.26
2022-12-09T06:02:46.360Z,75.10
2022-12-09T06:03:50.516Z,75.00
2022-12-09T06:04:52.880Z,74.96
2022-12-09T06:05:56.084Z,75.12
2022-12-09T06:06:57.971Z,75.19
2022-12-09T06:08:05.263Z,75.10
2022-12-09T06:09:11.582Z,75.10
2022-12-09T06:10:15.765Z,75.03
2022-12-09T06:11:20.350Z,75.16
2022-12-09T06:12:25.110Z,75.57
2022-12-09T06:13:27.417Z,75.15
2022-12-09T06:14:30.351Z,75.27
2022-12-09T06:15:35.096Z,75.18
2022-12-09T06:16:38.869Z,74.92
2022-12-09T06:17:41.054Z,75.01
2022-12-09T06:18:43.803Z,74.93
2022-12-09T06:19:46.159Z,74.96
2022-12-09T06:20:49.116Z,74.98
2022-12-09T06:21:50.748Z,74.62
2022-12-09T06:22:53.554Z,74.80
2022-12-09T06:23:55.621Z,74.86
2022-12-09T06:24:58.343Z,74.67
2022-12-09T06:26:00.275Z,74.66
2022-12-09T06:27:07.099Z,74.98
2022-12-09T06:28:10.058Z,74.97
2022-12-09T06:29:12.840Z,74.93
2022-12-09T06:30:14.989Z,74.58
2022-12-09T06:31:18.322Z,74.66
2022-12-09T06:32:20.986Z,74.74
2022-12-09T06:33:53.090Z,74.85
2022-12-09T06:34:46.449Z,74.87
2022-12-09T06:35:48.404Z,74.77
2022-12-09T06:36:51.454Z,74.94
2022-12-09T06:37:53.470Z,74.89
2022-12-09T06:38:57.940Z,75.03
2022-12-09T06:40:02.003Z,74.75
2022-12-09T06:41:07.032Z,74.73
2022-12-09T06:42:10.166Z,74.73
2022-12-09T06:43:22.347Z,74.55
2022-12-09T06:44:26.307Z,74.52
2022-12-09T06:45:28.203Z,74.65
2022-12-09T06:46:31.231Z,74.49
2022-12-09T06:47:33.681Z,74.57
2022-12-09T06:48:36.545Z,74.71
2022-12-09T06:49:38.517Z,74.84
2022-12-09T06:50:41.585Z,74.76
2022-12-09T06:51:44.667Z,74.86
2022-12-09T06:52:46.660Z,74.49
2022-12-09T06:53:49.470Z,74.54
2022-12-09T06:54:51.250Z,74.77
2022-12-09T06:55:54.149Z,74.53
2022-12-09T06:56:57.015Z,74.82
2022-12-09T06:57:59.200Z,74.40
2022-12-09T06:59:07.799Z,74.42
2022-12-09T07:00:10.635Z,74.66
2022-12-09T07:01:17.098Z,74.66
2022-12-09T07:02:19.947Z,74.55
2022-12-09T07:03:23.546Z,74.46
2022-12-09T07:04:26.850Z,74.69
2022-12-09T07:05:29.189Z,74.63
2022-12-09T07:06:35.586Z,74.60
2022-12-09T07:07:38.842Z,74.83
2022-12-09T07:08:41.084Z,75.00
2022-12-09T07:09:44.315Z,75.01
2022-12-09T07:10:51.728Z,75.18
2022-12-09T07:12:06.841Z,75.27
2022-12-09T07:13:08.590Z,75.28
2022-12-09T07:14:14.159Z,75.40
2022-12-09T07:15:16.442Z,75.23
2022-12-09T07:16:20.210Z,75.31
2022-12-09T07:17:23.201Z,75.30
2022-12-09T07:18:26.071Z,75.51
2022-12-09T07:19:29.846Z,75.41
2022-12-09T07:20:32.734Z,75.38
2022-12-09T07:21:34.661Z,75.64
2022-12-09T07:22:37.837Z,75.55
2022-12-09T07:23:40.215Z,75.68
2022-12-09T07:24:43.282Z,75.78
2022-12-09T07:25:45.308Z,75.89
2022-12-09T07:26:48.660Z,75.84
2022-12-09T07:27:51.699Z,76.05
2022-12-09T07:28:53.758Z,75.86
2022-12-09T07:29:58.439Z,76.01
2022-12-09T07:31:00.847Z,76.00
2022-12-09T07:32:04.009Z,76.09
2022-12-09T07:33:07.083Z,76.06
2022-12-09T07:34:11.909Z,76.17
2022-12-09T07:35:15.507Z,76.16
2022-12-09T07:36:21.231Z,76.16
2022-12-09T07:37:24.637Z,76.36
2022-12-09T07:38:27.800Z,76.20
2022-12-09T07:39:29.828Z,76.38
2022-12-09T07:40:32.770Z,76.54
2022-12-09T07:41:34.543Z,76.57
2022-12-09T07:42:37.283Z,76.50
2022-12-09T07:43:39.902Z,76.70
2022-12-09T07:44:41.895Z,76.54
2022-12-09T07:45:46.305Z,76.67
2022-12-09T07:46:50.149Z,76.71
2022-12-09T07:47:52.233Z,76.55
2022-12-09T07:48:57.311Z,76.66
2022-12-09T07:50:06.373Z,76.61
2022-12-09T07:51:09.762Z,76.72
2022-12-09T07:52:13.459Z,76.68
2022-12-09T07:53:15.418Z,76.75
2022-12-09T07:54:20.707Z,76.82
2022-12-09T07:55:23.459Z,76.86
2022-12-09T07:56:28.652Z,76.85
2022-12-09T07:57:31.746Z,76.92
2022-12-09T07:58:34.236Z,76.62
2022-12-09T07:59:37.231Z,76.69
2022-12-09T08:00:39.103Z,76.68
2022-12-09T08:01:43.804Z,76.90
2022-12-09T08:02:45.776Z,76.83
2022-12-09T08:03:56.471Z,76.84
2022-12-09T08:05:02.307Z,76.81
2022-12-09T08:06:05.136Z,76.72
2022-12-09T08:07:08.310Z,76.82
2022-12-09T08:08:10.721Z,76.83
2022-12-09T08:09:14.996Z,76.96
2022-12-09T08:10:17.235Z,76.92
2022-12-09T08:11:22.482Z,77.18
2022-12-09T08:12:25.508Z,77.07
2022-12-09T08:13:27.284Z,77.21
2022-12-09T08:14:30.269Z,76.93
2022-12-09T08:15:32.259Z,77.13
2022-12-09T08:16:35.148Z,77.34
2022-12-09T08:17:39.530Z,77.36
2022-12-09T08:18:42.220Z,77.26
2022-12-09T08:19:45.771Z,77.48
2022-12-09T08:20:48.804Z,77.35
2022-12-09T08:21:54.766Z,77.25
2022-12-09T08:22:57.116Z,77.34
2022-12-09T08:24:02.720Z,77.45
2022-12-09T08:25:07.227Z,77.31
2022-12-09T08:26:11.246Z,77.51
2022-12-09T08:27:14.080Z,77.21
2022-12-09T08:28:15.808Z,77.42
2022-12-09T08:29:18.826Z,77.10
2022-12-09T08:30:21.176Z,77.08
2022-12-09T08:31:25.881Z,77.30
2022-12-09T08:32:27.890Z,77.14
2022-12-09T08:33:34.322Z,76.95
2022-12-09T08:34:47.371Z,76.63
2022-12-09T08:35:49.493Z,76.86
2022-12-09T08:36:54.649Z,76.87
2022-12-09T08:38:00.417Z,76.78
2022-12-09T08:39:05.004Z,76.91
2022-12-09T08:40:08.146Z,77.04
2022-12-09T08:41:13.454Z,76.87
2022-12-09T08:42:16.419Z,77.08
2022-12-09T08:43:19.101Z,76.83
2022-12-09T08:44:22.830Z,76.90
2022-12-09T08:45:24.895Z,76.84
2022-12-09T08:46:27.789Z,77.04
2022-12-09T08:47:30.479Z,76.91
2022-12-09T08:48:33.862Z,76.95
2022-12-09T08:49:37.625Z,77.20
2022-12-09T08:50:40.283Z,77.00
2022-12-09T08:51:42.797Z,77.06
2022-12-09T08:52:45.837Z,77.15
2022-12-09T08:53:48.813Z,77.25
2022-12-09T08:54:51.751Z,77.00
2022-12-09T08:55:53.450Z,77.43
2022-12-09T08:56:57.053Z,77.26
2022-12-09T08:58:00.078Z,77.27
2022-12-09T08:59:03.033Z,77.32
2022-12-09T09:00:08.253Z,77.34
2022-12-09T09:01:16.538Z,77.05
2022-12-09T09:02:19.356Z,76.86
2022-12-09T09:03:21.871Z,77.08
2022-12-09T09:04:27.044Z,77.19
2022-12-09T09:05:30.054Z,77.20
2022-12-09T09:06:33.216Z,77.29
2022-12-09T09:07:36.311Z,76.96
2022-12-09T09:08:40.276Z,76.89
2022-12-09T09:09:43.119Z,76.97
2022-12-09T09:10:45.079Z,76.75
2022-12-09T09:11:48.126Z,77.09
2022-12-09T09:12:50.011Z,77.08
2022-12-09T09:13:53.093Z,76.92
2022-12-09T09:14:56.160Z,76.69
2022-12-09T09:15:59.316Z,76.69
2022-12-09T09:17:01.200Z,76.78
2022-12-09T09:18:03.965Z,76.59
2022-12-09T09:19:07.939Z,76.53
2022-12-09T09:20:11.945Z,76.39
2022-12-09T09:21:17.625Z,76.66
2022-12-09T09:22:20.361Z,76.33
2022-12-09T09:23:22.220Z,76.59
2022-12-09T09:24:26.197Z,76.52
2022-12-09T09:25:28.645Z,76.52
2022-12-09T09:26:31.340Z,76.65
2022-12-09T09:27:38.531Z,76.28
2022-12-09T09:28:42.006Z,76.56
2022-12-09T09:29:43.828Z,76.13
2022-12-09T09:30:50.362Z,76.43
2022-12-09T09:31:55.363Z,76.28
2022-12-09T09:32:58.323Z,76.15
2022-12-09T09:34:01.312Z,76.21
2022-12-09T09:35:04.332Z,76.19
2022-12-09T09:36:12.908Z,76.45
2022-12-09T09:37:15.870Z,76.23
2022-12-09T09:38:18.804Z,76.13
2022-12-09T09:39:23.146Z,75.70
2022-12-09T09:40:33.890Z,76.08
2022-12-09T09:41:46.559Z,75.90
2022-12-09T09:42:51.676Z,75.78
2022-12-09T09:43:56.350Z,75.81
2022-12-09T09:44:59.571Z,75.64
2022-12-09T09:46:02.029Z,75.66
2022-12-09T09:47:14.770Z,75.40
2022-12-09T09:48:20.817Z,75.40
2022-12-09T09:49:34.761Z,75.57
2022-12-09T09:50:44.488Z,75.43
2022-12-09T09:51:49.193Z,75.44
2022-12-09T09:52:54.536Z,75.06
2022-12-09T09:53:57.366Z,74.94
2022-12-09T09:55:02.896Z,75.23
2022-12-09T09:56:11.798Z,75.03
2022-12-09T09:57:17.394Z,74.71
2022-12-09T09:58:26.367Z,74.71
2022-12-09T09:59:40.502Z,74.73
2022-12-09T10:00:51.793Z,74.27
2022-12-09T10:02:03.452Z,74.25
2022-12-09T10:03:16.033Z,74.36
2022-12-09T10:04:25.633Z,74.05
2022-12-09T10:05:33.602Z,74.09
2022-12-09T10:06:46.019Z,74.24
2022-12-09T10:07:55.067Z,73.94
2022-12-09T10:09:04.793Z,73.70
2022-12-09T10:10:19.108Z,74.15
2022-12-09T10:11:30.055Z,73.94
2022-12-09T10:12:41.531Z,73.85
2022-12-09T10:13:56.145Z,74.00
2022-12-09T10:15:02.580Z,73.92
2022-12-09T10:16:14.949Z,74.00
2022-12-09T10:17:27.180Z,73.91
2022-12-09T10:18:34.422Z,74.00
2022-12-09T10:19:42.580Z,74.09
2022-12-09T10:20:45.054Z,74.00
2022-12-09T10:21:50.656Z,73.74
2022-12-09T10:23:00.617Z,73.68
2022-12-09T10:24:17.350Z,73.65
2022-12-09T10:25:24.012Z,73.85
2022-12-09T10:26:30.196Z,73.66
2022-12-09T10:27:38.945Z,73.72
2022-12-09T10:28:47.665Z,73.50
2022-12-09T10:29:56.773Z,73.41
2022-12-09T10:31:12.019Z,73.47
2022-12-09T10:32:18.067Z,73.38
2022-12-09T10:33:27.632Z,73.39
2022-12-09T10:34:30.295Z,73.33
2022-12-09T10:35:34.650Z,73.39
2022-12-09T10:36:37.469Z,73.17
2022-12-09T10:37:40.268Z,73.41
2022-12-09T10:38:43.411Z,73.43
2022-12-09T10:39:47.866Z,73.33
2022-12-09T10:41:00.458Z,73.60
2022-12-09T10:42:22.058Z,73.29
2022-12-09T10:43:35.105Z,73.40
2022-12-09T10:44:38.926Z,73.09
2022-12-09T10:46:16.657Z,73.41
2022-12-09T10:47:24.767Z,73.34
2022-12-09T10:48:32.935Z,73.27
2022-12-09T10:49:37.160Z,73.29
2022-12-09T10:50:48.490Z,73.32
2022-12-09T10:51:53.981Z,73.19
2022-12-09T10:52:58.052Z,73.32
2022-12-09T10:54:07.678Z,73.49
2022-12-09T10:55:22.316Z,73.13
2022-12-09T10:56:27.443Z,73.26
2022-12-09T10:57:30.699Z,73.27
2022-12-09T10:58:32.563Z,73.21
2022-12-09T10:59:36.900Z,72.97
2022-12-09T11:00:39.004Z,72.99
2022-12-09T11:01:53.865Z,73.08
2022-12-09T11:02:56.994Z,73.21
2022-12-09T11:03:59.879Z,73.26
2022-12-09T11:05:24.309Z,73.33
2022-12-09T11:06:30.507Z,72.99
2022-12-09T11:07:33.041Z,72.98
2022-12-09T11:08:36.355Z,73.05
2022-12-09T11:09:42.966Z,72.57
2022-12-09T11:10:49.349Z,72.74
2022-12-09T11:11:52.714Z,72.57
2022-12-09T11:13:05.359Z,72.34
2022-12-09T11:14:22.495Z,72.41
2022-12-09T11:15:29.884Z,72.43
2022-12-09T11:16:33.012Z,72.58
2022-12-09T11:17:39.910Z,72.21
2022-12-09T11:18:45.357Z,72.04
2022-12-09T11:19:52.387Z,71.90
2022-12-09T11:20:57.923Z,71.56
2022-12-09T11:22:24.231Z,71.64
2022-12-09T11:23:27.402Z,71.56
2022-12-09T11:24:31.123Z,71.42
2022-12-09T11:25:38.447Z,71.29
2022-12-09T11:26:41.324Z,71.33
2022-12-09T11:27:50.889Z,71.34
2022-12-09T11:29:04.010Z,71.25
2022-12-09T11:30:14.152Z,71.20
2022-12-09T11:31:35.759Z,71.14
2022-12-09T11:32:52.882Z,70.97
2022-12-09T11:33:59.635Z,71.11
2022-12-09T11:35:02.428Z,70.63
2022-12-09T11:36:09.377Z,70.73
2022-12-09T11:37:11.596Z,70.46
2022-12-09T11:38:22.676Z,70.58
2022-12-09T11:39:31.092Z,70.63
2022-12-09T11:40:34.195Z,70.32
2022-12-09T11:41:54.262Z,70.53
2022-12-09T11:42:57.976Z,70.73
2022-12-09T11:44:00.551Z,70.22
2022-12-09T11:45:06.551Z,70.47
2022-12-09T11:46:21.865Z,70.18
2022-12-09T11:47:36.428Z,70.54
2022-12-09T11:48:54.528Z,69.94
2022-12-09T11:50:13.292Z,70.44
2022-12-09T11:51:23.113Z,69.96
2022-12-09T11:52:30.681Z,69.96
2022-12-09T11:53:38.314Z,70.01
2022-12-09T11:54:48.986Z,70.13
2022-12-09T11:55:58.678Z,69.95
2022-12-09T11:57:02.234Z,70.03
2022-12-09T11:58:07.560Z,70.06
2022-12-09T11:59:15.033Z,69.60
2022-12-09T12:00:20.926Z,69.56
2022-12-09T12:01:31.887Z,69.34
2022-12-09T12:02:41.016Z,69.81
2022-12-09T12:03:50.946Z,69.77
2022-12-09T12:05:10.439Z,69.37
2022-12-09T12:06:19.352Z,69.74
2022-12-09T12:07:28.944Z,69.30
2022-12-09T12:08:37.855Z,69.35
2022-12-09T12:09:45.975Z,69.34
2022-12-09T12:10:52.606Z,69.31
2022-12-09T12:12:05.585Z,69.47
2022-12-09T12:13:17.299Z,69.62
2022-12-09T12:14:23.053Z,69.57
2022-12-09T12:15:31.136Z,69.19
2022-12-09T12:16:39.938Z,69.10
2022-12-09T12:17:45.518Z,68.93
2022-12-09T12:18:54.393Z,69.29
2022-12-09T12:19:57.486Z,69.21
2022-12-09T12:21:35.552Z,69.08
2022-12-09T12:23:06.285Z,69.01
2022-12-09T12:24:22.363Z,68.98
2022-12-09T12:25:37.726Z,69.19
2022-12-09T12:26:48.309Z,68.94
2022-12-09T12:28:18.537Z,68.89
2022-12-09T12:29:31.380Z,69.01
2022-12-09T12:30:40.835Z,68.48
2022-12-09T12:32:08.379Z,68.84
2022-12-09T12:34:00.308Z,68.36
2022-12-09T12:35:01.252Z,68.55
2022-12-09T12:36:11.280Z,68.28
2022-12-09T12:37:27.474Z,68.53
2022-12-09T12:38:52.389Z,68.38
2022-12-09T12:40:04.437Z,68.44
2022-12-09T12:41:10.503Z,68.10
2022-12-09T12:42:25.482Z,68.37
2022-12-09T12:44:05.552Z,68.43
2022-12-09T12:45:35.123Z,68.21
2022-12-09T12:46:51.354Z,68.15
2022-12-09T12:47:59.627Z,68.41
2022-12-09T12:49:18.507Z,68.38
2022-12-09T12:50:39.438Z,68.21
2022-12-09T12:51:54.718Z,67.97
2022-12-09T12:53:05.164Z,67.81
2022-12-09T12:54:20.979Z,67.91
2022-12-09T12:55:37.613Z,67.63
2022-12-09T12:56:50.930Z,67.69
2022-12-09T12:58:00.102Z,67.79
2022-12-09T12:59:14.896Z,67.48
2022-12-09T13:00:20.380Z,67.81
2022-12-09T13:01:31.014Z,67.78
2022-12-09T13:02:44.871Z,67.39
2022-12-09T13:06:48.400Z,67.53
2022-12-09T13:07:57.244Z,67.61
2022-12-09T13:09:03.555Z,67.66
2022-12-09T13:10:16.656Z,67.28
2022-12-09T13:11:22.904Z,67.33
2022-12-09T13:12:42.246Z,67.81
2022-12-09T13:13:49.302Z,67.46
2022-12-09T13:14:55.865Z,67.73
2022-12-09T13:16:02.501Z,67.65
2022-12-09T13:17:09.112Z,67.32
2022-12-09T13:18:15.930Z,67.30
2022-12-09T13:19:24.434Z,67.53
2022-12-09T13:20:34.096Z,67.54
2022-12-09T13:21:37.173Z,67.34
2022-12-09T13:22:48.023Z,67.05
2022-12-09T13:24:01.595Z,66.97
2022-12-09T13:25:14.332Z,67.14
2022-12-09T13:26:27.825Z,67.17
2022-12-09T13:27:39.325Z,67.09
2022-12-09T13:28:48.916Z,66.71
2022-12-09T13:30:00.528Z,66.98
2022-12-09T13:31:08.949Z,66.83
2022-12-09T13:32:40.204Z,66.90
2022-12-09T13:33:50.562Z,66.57
2022-12-09T13:39:58.067Z,65.96
2022-12-09T13:41:00.698Z,66.51
2022-12-09T13:42:20.731Z,66.40
2022-12-09T13:43:26.948Z,66.32
2022-12-09T13:44:33.451Z,66.31
2022-12-09T13:45:49.783Z,66.06
2022-12-09T13:46:51.402Z,66.12
2022-12-09T13:47:55.148Z,66.22
2022-12-09T13:48:57.825Z,66.47
2022-12-09T13:50:01.455Z,66.29
2022-12-09T13:51:04.356Z,66.22
2022-12-09T13:52:07.011Z,66.32
2022-12-09T13:53:26.195Z,66.69
2022-12-09T13:54:30.478Z,66.35
2022-12-09T13:55:52.637Z,66.23
2022-12-09T13:57:19.239Z,66.68
2022-12-09T13:58:41.524Z,66.82
2022-12-09T14:04:25.978Z,66.76
2022-12-09T14:05:31.051Z,66.86
2022-12-09T14:06:40.018Z,66.63
2022-12-09T14:07:48.359Z,66.70
2022-12-09T14:08:53.983Z,66.48
2022-12-09T14:09:58.202Z,66.61
2022-12-09T14:11:39.116Z,66.90
2022-12-09T14:13:05.964Z,66.51
2022-12-09T14:14:37.868Z,66.44
2022-12-09T14:15:41.025Z,66.47
2022-12-09T14:16:43.715Z,66.44
2022-12-09T14:18:03.446Z,66.83
2022-12-09T14:19:51.500Z,66.91
2022-12-09T14:21:27.468Z,66.85
2022-12-09T14:22:33.094Z,67.01
2022-12-09T14:23:35.629Z,66.86
2022-12-09T14:24:37.874Z,67.11
2022-12-09T14:26:00.366Z,66.98
2022-12-09T14:27:13.195Z,67.37